createdAt,value
2018-11-27T00:00:22.782Z,31.20
2018-11-27T00:02:52.103Z,29.33
2018-11-27T00:05:20.419Z,31.23
2018-11-27T00:07:48.755Z,34.83
2018-11-27T00:10:17.040Z,31.63
2018-11-27T00:12:45.537Z,30.03
2018-11-27T00:15:14.092Z,26.93
2018-11-27T00:17:42.464Z,26.90
2018-11-27T00:20:13.087Z,28.00
2018-11-27T00:22:41.585Z,30.07
2018-11-27T00:25:12.914Z,30.50
2018-11-27T00:27:41.345Z,29.57
2018-11-27T00:30:12.568Z,31.47
2018-11-27T00:32:40.945Z,32.60
2018-11-27T00:35:12.300Z,32.40
2018-11-27T00:37:40.665Z,27.27
2018-11-27T00:40:12.392Z,32.40
2018-11-27T00:42:40.830Z,33.20
2018-11-27T00:45:11.424Z,27.40
2018-11-27T00:47:39.791Z,28.93
2018-11-27T00:50:10.936Z,29.73
2018-11-27T00:52:39.618Z,30.20
2018-11-27T00:55:09.520Z,29.03
2018-11-27T00:57:38.098Z,27.53
2018-11-27T01:00:10.827Z,27.90
2018-11-27T01:02:39.225Z,28.53
2018-11-27T01:05:09.346Z,27.80
2018-11-27T01:07:37.811Z,30.27
2018-11-27T01:10:09.608Z,30.60
2018-11-27T01:12:43.898Z,25.33
2018-11-27T01:15:12.981Z,26.87
2018-11-27T01:17:42.765Z,23.07
2018-11-27T01:20:17.385Z,23.20
2018-11-27T01:22:45.786Z,23.40
2018-11-27T01:25:14.224Z,24.17
2018-11-27T01:27:42.627Z,24.23
2018-11-27T01:30:16.037Z,21.63
2018-11-27T01:32:44.532Z,21.13
2018-11-27T01:35:14.126Z,24.47
2018-11-27T01:37:42.497Z,22.13
2018-11-27T01:40:19.991Z,21.40
2018-11-27T01:42:49.375Z,22.90
2018-11-27T01:45:18.884Z,21.73
2018-11-27T01:47:47.660Z,21.57
2018-11-27T01:50:16.765Z,21.03
2018-11-27T01:52:45.086Z,21.27
2018-11-27T01:55:15.244Z,21.53
2018-11-27T01:57:43.765Z,21.27
2018-11-27T02:00:21.984Z,20.47
2018-11-27T02:02:50.637Z,22.20
2018-11-27T02:05:19.008Z,19.23
2018-11-27T02:07:47.429Z,21.37
2018-11-27T02:10:15.871Z,20.67
2018-11-27T02:12:45.292Z,19.07
2018-11-27T02:15:15.997Z,21.57
2018-11-27T02:17:44.345Z,19.40
2018-11-27T02:20:13.092Z,20.00
2018-11-27T02:22:41.611Z,19.57
2018-11-27T02:25:13.614Z,21.13
2018-11-27T02:27:41.910Z,17.77
2018-11-27T02:30:11.921Z,21.07
2018-11-27T02:32:40.263Z,21.80
2018-11-27T02:35:10.319Z,19.07
2018-11-27T02:37:38.729Z,18.30
2018-11-27T02:40:09.595Z,19.67
2018-11-27T02:42:38.074Z,19.47
2018-11-27T02:45:08.229Z,17.17
2018-11-27T02:47:36.549Z,19.67
2018-11-27T02:50:05.759Z,20.53
2018-11-27T02:52:34.123Z,19.43
2018-11-27T02:55:02.518Z,20.10
2018-11-27T02:57:30.998Z,18.37
2018-11-27T02:59:59.409Z,20.83
2018-11-27T03:02:27.734Z,19.87
2018-11-27T03:04:56.038Z,21.07
2018-11-27T03:07:24.316Z,22.90
2018-11-27T03:09:52.612Z,26.97
2018-11-27T03:12:20.905Z,24.50
2018-11-27T03:14:49.217Z,23.93
2018-11-27T03:17:17.548Z,21.73
2018-11-27T03:19:46.089Z,22.87
2018-11-27T03:22:14.440Z,23.83
2018-11-27T03:24:42.840Z,22.57
2018-11-27T03:27:11.221Z,24.43
2018-11-27T03:29:39.607Z,30.77
2018-11-27T03:32:07.960Z,27.20
2018-11-27T03:34:36.284Z,45.83
2018-11-27T03:37:04.655Z,22.77
2018-11-27T03:39:32.973Z,23.07
2018-11-27T03:42:01.414Z,26.97
2018-11-27T03:44:29.768Z,28.20
2018-11-27T03:46:58.106Z,26.50
2018-11-27T03:49:26.524Z,26.53
2018-11-27T03:51:54.828Z,23.67
2018-11-27T03:54:23.153Z,24.40
2018-11-27T03:56:51.449Z,26.93
2018-11-27T03:59:19.797Z,26.70
2018-11-27T04:01:48.205Z,26.93
2018-11-27T04:04:16.511Z,24.73
2018-11-27T04:06:44.860Z,22.53
2018-11-27T04:09:13.183Z,21.07
2018-11-27T04:11:41.637Z,23.97
2018-11-27T04:14:09.977Z,23.67
2018-11-27T04:16:38.370Z,21.77
2018-11-27T04:19:06.801Z,24.73
2018-11-27T04:21:35.144Z,24.93
2018-11-27T04:24:03.501Z,21.73
2018-11-27T04:26:32.075Z,23.27
2018-11-27T04:29:00.427Z,21.97
2018-11-27T04:31:28.835Z,23.53
2018-11-27T04:33:57.194Z,28.83
2018-11-27T04:36:25.607Z,24.37
2018-11-27T04:38:53.884Z,26.20
2018-11-27T04:41:22.311Z,24.47
2018-11-27T04:43:50.700Z,26.33
2018-11-27T04:46:19.017Z,27.10
2018-11-27T04:48:47.335Z,26.83
2018-11-27T04:51:15.763Z,24.57
2018-11-27T04:53:44.052Z,26.97
2018-11-27T04:56:12.377Z,28.97
2018-11-27T04:58:40.748Z,25.07
2018-11-27T05:01:09.162Z,26.10
2018-11-27T05:03:37.502Z,30.67
2018-11-27T05:06:06.008Z,30.67
2018-11-27T05:08:34.363Z,28.23
2018-11-27T05:11:02.671Z,27.23
2018-11-27T05:13:32.219Z,31.30
2018-11-27T05:15:59.410Z,31.67
2018-11-27T05:18:27.778Z,33.53
2018-11-27T05:20:56.093Z,32.50
2018-11-27T05:23:24.413Z,31.97
2018-11-27T05:25:53.177Z,29.60
2018-11-27T05:28:21.587Z,34.17
2018-11-27T05:30:49.989Z,33.57
2018-11-27T05:33:18.360Z,36.20
2018-11-27T05:35:46.740Z,35.37
2018-11-27T05:38:15.104Z,32.33
2018-11-27T05:40:43.493Z,33.27
2018-11-27T05:43:11.837Z,36.27
2018-11-27T05:45:40.330Z,34.50
2018-11-27T05:48:08.717Z,30.97
2018-11-27T05:50:37.167Z,33.17
2018-11-27T05:53:06.185Z,37.90
2018-11-27T05:55:34.577Z,32.67
2018-11-27T05:58:02.875Z,33.13
2018-11-27T06:00:31.228Z,35.00
2018-11-27T06:03:01.186Z,34.20
2018-11-27T06:05:29.785Z,33.90
2018-11-27T06:07:58.119Z,29.70
2018-11-27T06:10:26.484Z,32.80
2018-11-27T06:12:54.881Z,37.00
2018-11-27T06:15:24.173Z,35.60
2018-11-27T06:17:55.823Z,34.13
2018-11-27T06:20:24.293Z,34.07
2018-11-27T06:22:53.616Z,35.33
2018-11-27T06:25:23.227Z,32.50
2018-11-27T06:27:53.387Z,35.80
2018-11-27T06:30:23.997Z,35.83
2018-11-27T06:32:52.456Z,34.50
2018-11-27T06:35:23.022Z,37.07
2018-11-27T06:37:51.650Z,35.87
2018-11-27T06:40:21.241Z,36.30
2018-11-27T06:42:49.688Z,34.53
2018-11-27T06:45:19.878Z,34.17
2018-11-27T06:47:50.824Z,37.23
2018-11-27T06:50:19.896Z,36.23
2018-11-27T06:52:48.345Z,33.77
2018-11-27T06:55:18.070Z,37.80
2018-11-27T06:57:46.421Z,33.63
2018-11-27T07:00:17.122Z,34.67
2018-11-27T07:02:45.533Z,35.47
2018-11-27T07:05:14.475Z,35.13
2018-11-27T07:07:43.619Z,34.20
2018-11-27T07:10:20.951Z,33.90
2018-11-27T07:12:50.977Z,34.70
2018-11-27T07:15:20.777Z,32.27
2018-11-27T07:17:49.364Z,31.63
2018-11-27T07:21:44.581Z,30.30
2018-11-27T07:24:13.046Z,35.83
2018-11-27T07:26:41.573Z,31.47
2018-11-27T07:29:09.950Z,32.40
2018-11-27T07:31:38.341Z,33.00
2018-11-27T07:34:06.851Z,34.50
2018-11-27T07:36:35.368Z,30.37
2018-11-27T07:39:05.270Z,30.43
2018-11-27T07:41:34.191Z,29.20
2018-11-27T07:44:04.615Z,33.20
2018-11-27T07:46:33.004Z,30.90
2018-11-27T07:49:01.842Z,31.53
2018-11-27T07:51:30.374Z,32.83
2018-11-27T07:53:58.672Z,33.90
2018-11-27T07:56:27.045Z,32.47
2018-11-27T07:58:55.537Z,34.63
2018-11-27T08:01:23.848Z,34.67
2018-11-27T08:03:52.131Z,36.67
2018-11-27T08:06:20.372Z,36.73
2018-11-27T08:08:48.622Z,35.70
2018-11-27T08:11:16.867Z,37.53
2018-11-27T08:13:45.122Z,34.70
2018-11-27T08:16:13.350Z,36.93
2018-11-27T08:18:41.615Z,37.00
2018-11-27T08:21:09.879Z,38.73
2018-11-27T08:23:38.246Z,34.80
2018-11-27T08:26:06.983Z,36.03
2018-11-27T08:28:35.339Z,32.50
2018-11-27T08:31:03.673Z,38.77
2018-11-27T08:33:31.985Z,33.60
2018-11-27T08:36:00.331Z,32.17
2018-11-27T08:38:28.621Z,31.60
2018-11-27T08:40:56.886Z,33.70
2018-11-27T08:43:25.268Z,35.13
2018-11-27T08:45:53.483Z,34.27
2018-11-27T08:48:21.769Z,37.63
2018-11-27T08:50:50.038Z,34.77
2018-11-27T08:53:18.284Z,32.70
2018-11-27T08:55:46.551Z,41.33
2018-11-27T08:58:20.522Z,35.60
2018-11-27T09:00:48.909Z,34.03
2018-11-27T09:03:17.208Z,33.07
2018-11-27T09:05:45.460Z,30.83
2018-11-27T09:08:13.727Z,32.03
2018-11-27T09:10:41.985Z,31.83
2018-11-27T09:13:10.233Z,26.50
2018-11-27T09:15:38.530Z,33.30
2018-11-27T09:18:17.999Z,32.23
2018-11-27T09:20:46.273Z,29.70
2018-11-27T09:23:14.537Z,33.03
2018-11-27T09:25:42.843Z,31.57
2018-11-27T09:28:11.131Z,29.87
2018-11-27T09:30:39.471Z,32.13
2018-11-27T09:33:08.468Z,30.03
2018-11-27T09:35:36.833Z,30.90
2018-11-27T09:38:05.253Z,36.80
2018-11-27T09:40:33.539Z,31.53
2018-11-27T09:43:01.800Z,31.07
2018-11-27T09:45:30.104Z,28.10
2018-11-27T09:47:59.062Z,26.30
2018-11-27T09:50:27.307Z,30.83
2018-11-27T09:52:55.610Z,34.63
2018-11-27T09:55:27.540Z,29.43
2018-11-27T09:57:58.995Z,31.60
2018-11-27T10:00:27.468Z,26.40
2018-11-27T10:02:57.007Z,30.00
2018-11-27T10:05:25.291Z,33.10
2018-11-27T10:07:53.576Z,30.53
2018-11-27T10:10:24.228Z,29.80
2018-11-27T10:12:52.579Z,28.23
2018-11-27T10:15:23.141Z,29.40
2018-11-27T10:17:53.627Z,30.87
2018-11-27T10:20:23.135Z,27.03
2018-11-27T10:22:51.411Z,27.63
2018-11-27T10:25:19.649Z,28.33
2018-11-27T10:27:47.913Z,29.73
2018-11-27T10:30:21.295Z,27.97
2018-11-27T10:32:50.463Z,25.93
2018-11-27T10:35:28.636Z,29.67
2018-11-27T10:37:56.972Z,32.20
2018-11-27T10:40:25.252Z,27.70
2018-11-27T10:42:53.675Z,31.63
2018-11-27T10:45:22.801Z,27.97
2018-11-27T10:47:54.427Z,29.33
2018-11-27T10:50:23.302Z,29.60
2018-11-27T10:52:56.472Z,30.70
2018-11-27T10:55:24.867Z,28.77
2018-11-27T10:57:53.284Z,27.90
2018-11-27T11:00:29.766Z,29.60
2018-11-27T11:03:03.373Z,31.43
2018-11-27T11:05:33.464Z,29.63
2018-11-27T11:08:01.775Z,28.07
2018-11-27T11:10:30.017Z,27.47
2018-11-27T11:12:58.423Z,24.73
2018-11-27T11:15:26.989Z,25.23
2018-11-27T11:17:55.322Z,24.40
2018-11-27T11:20:24.355Z,26.47
2018-11-27T11:22:52.634Z,22.83
2018-11-27T11:25:22.117Z,25.83
2018-11-27T11:27:58.413Z,28.20
2018-11-27T11:30:26.632Z,27.87
2018-11-27T11:32:54.890Z,26.17
2018-11-27T11:35:23.161Z,25.00
2018-11-27T11:37:51.482Z,23.27
2018-11-27T11:40:22.927Z,23.97
2018-11-27T11:42:53.424Z,94.80
2018-11-27T11:45:21.651Z,30.10
2018-11-27T11:47:49.919Z,25.33
2018-11-27T11:50:22.239Z,26.43
2018-11-27T11:52:51.936Z,23.57
2018-11-27T11:55:20.552Z,26.53
2018-11-27T11:57:48.799Z,25.13
2018-11-27T12:00:23.456Z,22.47
2018-11-27T12:02:51.712Z,24.97
2018-11-27T12:05:24.885Z,26.20
2018-11-27T12:07:48.686Z,25.17
2018-11-27T12:10:17.231Z,24.80
2018-11-27T12:12:46.535Z,22.77
2018-11-27T12:15:15.907Z,23.50
2018-11-27T12:17:44.694Z,26.43
2018-11-27T12:20:14.106Z,21.87
2018-11-27T12:22:44.148Z,24.60
2018-11-27T12:25:13.338Z,22.83
2018-11-27T12:27:41.671Z,41.73
2018-11-27T12:30:12.185Z,23.30
2018-11-27T12:32:40.447Z,24.17
2018-11-27T12:35:09.621Z,23.83
2018-11-27T12:37:38.196Z,22.63
2018-11-27T12:40:10.453Z,26.47
2018-11-27T12:42:38.858Z,25.13
2018-11-27T12:45:09.198Z,23.50
2018-11-27T12:47:37.469Z,21.03
2018-11-27T12:50:10.256Z,23.87
2018-11-27T12:52:38.703Z,24.03
2018-11-27T12:55:08.968Z,26.17
2018-11-27T12:57:37.252Z,25.13
2018-11-27T13:00:14.347Z,26.97
2018-11-27T13:02:42.726Z,24.40
2018-11-27T13:05:15.158Z,26.73
2018-11-27T13:07:43.526Z,25.23
2018-11-27T13:10:14.941Z,31.40
2018-11-27T13:12:43.647Z,27.63
2018-11-27T13:15:16.067Z,32.20
2018-11-27T13:17:44.424Z,29.57
2018-11-27T13:20:14.150Z,27.17
2018-11-27T13:22:43.502Z,26.63
2018-11-27T13:25:14.966Z,38.77
2018-11-27T13:27:43.216Z,25.83
2018-11-27T13:30:16.716Z,26.67
2018-11-27T13:32:46.363Z,27.73
2018-11-27T13:35:14.779Z,22.77
2018-11-27T13:37:43.024Z,27.07
2018-11-27T13:40:12.455Z,24.90
2018-11-27T13:42:41.519Z,22.90
2018-11-27T13:45:11.420Z,23.20
2018-11-27T13:47:39.656Z,23.00
2018-11-27T13:50:14.356Z,25.93
2018-11-27T13:52:42.769Z,20.60
2018-11-27T13:55:17.417Z,20.03
2018-11-27T13:57:45.742Z,22.07
2018-11-27T14:00:16.200Z,29.40
2018-11-27T14:02:46.528Z,22.03
2018-11-27T14:05:16.633Z,18.80
2018-11-27T14:07:45.086Z,18.57
2018-11-27T14:10:13.581Z,18.13
2018-11-27T14:12:41.990Z,21.63
2018-11-27T14:15:15.453Z,21.27
2018-11-27T14:17:43.896Z,17.97
2018-11-27T14:20:12.443Z,18.03
2018-11-27T14:22:40.797Z,19.67
2018-11-27T14:25:11.734Z,18.50
2018-11-27T14:27:40.180Z,23.73
2018-11-27T14:30:13.575Z,24.77
2018-11-27T14:32:41.895Z,29.03
2018-11-27T14:35:10.671Z,26.90
2018-11-27T14:37:39.192Z,22.80
2018-11-27T14:40:12.230Z,21.83
2018-11-27T14:42:40.745Z,19.17
2018-11-27T14:45:12.872Z,17.80
2018-11-27T14:47:41.193Z,16.60
2018-11-27T14:50:11.064Z,17.10
2018-11-27T14:52:39.534Z,19.47
2018-11-27T14:55:09.900Z,17.30
2018-11-27T14:57:38.214Z,18.27
2018-11-27T15:00:10.174Z,19.50
2018-11-27T15:02:38.475Z,19.20
2018-11-27T15:05:10.409Z,19.57
2018-11-27T15:07:38.908Z,21.50
2018-11-27T15:10:10.447Z,18.33
2018-11-27T15:12:38.929Z,15.70
2018-11-27T15:15:09.061Z,18.67
2018-11-27T15:17:37.617Z,18.20
2018-11-27T15:20:12.526Z,18.07
2018-11-27T15:22:40.927Z,18.90
2018-11-27T15:25:09.522Z,17.73
2018-11-27T15:27:39.455Z,17.77
2018-11-27T15:30:11.721Z,20.10
2018-11-27T15:32:40.034Z,18.57
2018-11-27T15:35:08.618Z,19.90
2018-11-27T15:37:36.949Z,19.03
2018-11-27T15:40:08.053Z,21.40
2018-11-27T15:42:36.451Z,21.63
2018-11-27T15:45:05.862Z,20.93
2018-11-27T15:47:34.232Z,26.83
2018-11-27T15:50:02.563Z,26.60
2018-11-27T15:52:31.253Z,23.73
2018-11-27T15:54:59.700Z,23.07
2018-11-27T15:57:28.037Z,21.27
2018-11-27T15:59:56.494Z,24.13
2018-11-27T16:02:25.000Z,20.17
2018-11-27T16:04:53.437Z,28.03
2018-11-27T16:07:21.957Z,27.40
2018-11-27T16:09:50.425Z,22.93
2018-11-27T16:12:18.809Z,26.03
2018-11-27T16:14:47.285Z,25.80
2018-11-27T16:17:15.674Z,26.80
2018-11-27T16:19:44.022Z,26.40
2018-11-27T16:22:12.442Z,26.03
2018-11-27T16:24:40.775Z,25.10
2018-11-27T16:27:09.162Z,27.90
2018-11-27T16:29:37.582Z,28.03
2018-11-27T16:32:06.242Z,25.93
2018-11-27T16:34:34.728Z,28.70
2018-11-27T16:37:03.037Z,29.50
2018-11-27T16:45:30.778Z,26.90
2018-11-27T16:48:00.852Z,26.17
2018-11-27T16:50:29.540Z,31.47
2018-11-27T16:52:57.935Z,41.37
2018-11-27T16:55:26.285Z,30.87
2018-11-27T16:57:54.645Z,31.27
2018-11-27T17:00:26.246Z,42.60
2018-11-27T17:02:57.035Z,41.43
2018-11-27T17:05:26.523Z,29.73
2018-11-27T17:07:55.127Z,28.77
2018-11-27T17:10:23.712Z,37.90
2018-11-27T17:12:53.800Z,33.30
2018-11-27T17:15:23.463Z,28.10
2018-11-27T17:17:52.435Z,34.03
2018-11-27T17:20:26.082Z,29.40
2018-11-27T17:22:55.541Z,28.83
2018-11-27T17:25:24.286Z,27.80
2018-11-27T17:27:53.799Z,29.53
2018-11-27T17:30:26.842Z,25.80
2018-11-27T17:32:55.887Z,29.33
2018-11-27T17:35:25.367Z,30.53
2018-11-27T17:37:53.856Z,32.57
2018-11-27T17:40:22.360Z,28.20
2018-11-27T17:42:51.151Z,29.10
2018-11-27T17:45:20.042Z,38.43
2018-11-27T17:47:48.781Z,30.40
2018-11-27T17:50:18.145Z,33.40
2018-11-27T17:52:47.117Z,30.93
2018-11-27T17:55:15.711Z,33.10
2018-11-27T17:57:44.450Z,29.67
2018-11-27T18:00:19.080Z,31.97
2018-11-27T18:02:50.180Z,34.70
2018-11-27T18:05:18.937Z,31.60
2018-11-27T18:07:48.178Z,31.40
2018-11-27T18:10:16.630Z,38.47
2018-11-27T18:12:45.299Z,32.93
2018-11-27T18:15:19.780Z,30.33
2018-11-27T18:17:48.298Z,28.50
2018-11-27T18:20:16.594Z,28.47
2018-11-27T18:22:45.058Z,30.57
2018-11-27T18:25:17.312Z,37.00
2018-11-27T18:27:47.065Z,32.00
2018-11-27T18:30:18.616Z,31.23
2018-11-27T18:32:47.084Z,27.87
2018-11-27T18:35:16.663Z,31.80
2018-11-27T18:37:45.746Z,31.87
2018-11-27T18:40:15.003Z,35.37
2018-11-27T18:42:43.903Z,31.13
2018-11-27T18:45:15.362Z,30.60
2018-11-27T18:47:43.786Z,28.47
2018-11-27T18:50:12.449Z,28.70
2018-11-27T18:52:41.286Z,32.43
2018-11-27T18:55:11.849Z,31.87
2018-11-27T18:57:40.997Z,33.23
2018-11-27T19:00:20.835Z,31.97
2018-11-27T19:02:49.967Z,28.67
2018-11-27T19:05:18.582Z,29.90
2018-11-27T19:07:47.203Z,29.77
2018-11-27T19:10:17.710Z,31.63
2018-11-27T19:12:47.007Z,34.83
2018-11-27T19:15:21.034Z,31.00
2018-11-27T19:17:52.272Z,29.53
2018-11-27T19:20:20.774Z,32.90
2018-11-27T19:22:49.366Z,33.97
2018-11-27T19:25:18.142Z,32.13
2018-11-27T19:27:47.103Z,32.07
2018-11-27T19:30:19.986Z,38.17
2018-11-27T19:32:48.629Z,33.30
2018-11-27T19:35:18.217Z,33.93
2018-11-27T19:37:47.694Z,38.13
2018-11-27T19:40:17.524Z,33.07
2018-11-27T19:42:46.119Z,34.80
2018-11-27T19:45:23.809Z,33.20
2018-11-27T19:47:52.883Z,33.47
2018-11-27T19:50:22.604Z,33.47
2018-11-27T19:52:53.532Z,31.93
2018-11-27T19:55:22.221Z,35.47
2018-11-27T19:57:50.911Z,33.47
2018-11-27T20:00:21.396Z,35.00
2018-11-27T20:02:50.140Z,36.10
2018-11-27T20:05:21.828Z,34.53
2018-11-27T20:07:53.749Z,41.13
2018-11-27T20:10:22.373Z,36.30
2018-11-27T20:12:50.866Z,36.50
2018-11-27T20:15:21.386Z,35.10
2018-11-27T20:17:50.785Z,34.30
2018-11-27T20:20:23.051Z,33.00
2018-11-27T20:22:51.571Z,32.03
2018-11-27T20:25:21.240Z,33.63
2018-11-27T20:27:49.831Z,32.57
2018-11-27T20:30:20.200Z,33.43
2018-11-27T20:32:52.892Z,34.13
2018-11-27T20:35:21.321Z,34.43
2018-11-27T20:37:51.008Z,37.67
2018-11-27T20:40:20.111Z,39.20
2018-11-27T20:42:48.784Z,34.73
2018-11-27T20:45:22.304Z,35.47
2018-11-27T20:47:58.118Z,33.37
2018-11-27T20:50:26.682Z,34.43
2018-11-27T20:52:55.260Z,35.10
2018-11-27T20:55:23.680Z,33.90
2018-11-27T20:57:58.192Z,31.70
2018-11-27T21:00:31.096Z,29.17
2018-11-27T21:03:00.573Z,28.40
2018-11-27T21:05:28.923Z,30.13
2018-11-27T21:07:57.303Z,33.37
2018-11-27T21:10:25.657Z,35.53
2018-11-27T21:12:54.093Z,31.03
2018-11-27T21:15:22.602Z,31.60
2018-11-27T21:17:50.950Z,30.97
2018-11-27T21:20:19.722Z,29.93
2018-11-27T21:22:47.933Z,32.77
2018-11-27T21:25:18.286Z,33.50
2018-11-27T21:27:48.576Z,33.37
2018-11-27T21:30:17.876Z,33.00
2018-11-27T21:32:46.268Z,32.83
2018-11-27T21:35:15.657Z,30.33
2018-11-27T21:37:44.069Z,32.30
2018-11-27T21:40:14.709Z,34.13
2018-11-27T21:42:43.012Z,31.87
2018-11-27T21:45:17.603Z,33.67
2018-11-27T21:47:46.183Z,34.47
2018-11-27T21:50:16.901Z,36.50
2018-11-27T21:52:45.181Z,35.87
2018-11-27T21:55:14.548Z,33.93
2018-11-27T21:57:42.948Z,33.27
2018-11-27T22:00:15.291Z,34.50
2018-11-27T22:02:43.654Z,35.57
2018-11-27T22:05:12.572Z,35.33
2018-11-27T22:07:40.977Z,34.80
2018-11-27T22:10:10.376Z,32.03
2018-11-27T22:12:38.680Z,36.47
2018-11-27T22:15:09.703Z,36.63
2018-11-27T22:17:38.093Z,39.00
2018-11-27T22:20:08.361Z,37.23
2018-11-27T22:22:36.766Z,36.37
2018-11-27T22:25:06.503Z,36.60
2018-11-27T22:27:34.970Z,33.83
2018-11-27T22:30:03.434Z,32.80
2018-11-27T22:32:31.757Z,38.40
2018-11-27T22:35:00.060Z,35.87
2018-11-27T22:37:28.483Z,35.40
2018-11-27T22:39:56.768Z,37.13
2018-11-27T22:42:25.092Z,37.30
2018-11-27T22:44:53.424Z,40.43
2018-11-27T22:47:21.740Z,37.57
2018-11-27T22:49:50.053Z,35.53
2018-11-27T22:52:18.405Z,37.43
2018-11-27T22:54:46.905Z,34.77
2018-11-27T22:57:15.221Z,35.30
2018-11-27T22:59:43.692Z,37.17
2018-11-27T23:02:13.133Z,38.80
2018-11-27T23:04:41.512Z,38.67
2018-11-27T23:07:14.794Z,42.70
2018-11-27T23:09:43.243Z,41.70
2018-11-27T23:12:11.539Z,38.23
2018-11-27T23:14:39.920Z,43.47
2018-11-27T23:17:08.285Z,43.03
2018-11-27T23:19:36.607Z,36.57
2018-11-27T23:22:04.917Z,38.23
2018-11-27T23:24:33.465Z,35.17
2018-11-27T23:27:04.817Z,40.00
2018-11-27T23:29:33.196Z,37.77
2018-11-27T23:32:09.733Z,38.30
2018-11-27T23:34:38.119Z,39.37
2018-11-27T23:37:06.472Z,41.93
2018-11-27T23:39:34.789Z,40.07
2018-11-27T23:42:03.163Z,40.10
2018-11-27T23:44:31.617Z,41.40
2018-11-27T23:46:59.993Z,41.87
2018-11-27T23:49:28.376Z,39.30
2018-11-27T23:51:56.725Z,38.37
2018-11-27T23:54:25.056Z,40.00
2018-11-27T23:56:53.696Z,41.13
2018-11-27T23:59:22.052Z,44.40
